Time;durP1;ratioP1;P1;durP2;ratioP2;P2;SDS_P1;SDS_P2;PMS_P1;PMS_P2;Temp;Humidity;BMP_temperature;BMP_pressure;BME280_temperature;BME280_humidity;BME280_pressure;Samples;Min_cycle;Max_cycle;Signal;HPM_P1;HPM_P2
2022/06/23 00:02:19;;;;;;;10.95;5.28;;;;;;;16.40;100.00;98098.63;5066585;28;20032;-70
2022/06/23 00:04:47;;;;;;;18.20;5.22;;;;;;;16.31;100.00;98102.59;5048649;28;20206;-70
2022/06/23 00:07:20;;;;;;;14.63;4.78;;;;;;;16.30;100.00;98095.56;5060072;28;20097;-70
2022/06/23 00:09:45;;;;;;;13.02;5.32;;;;;;;16.30;100.00;98098.22;5066713;28;20215;-70
2022/06/23 00:12:19;;;;;;;17.77;6.20;;;;;;;16.29;100.00;98098.28;5066419;28;20031;-70
2022/06/23 00:14:59;;;;;;;18.45;5.57;;;;;;;16.29;100.00;98100.94;5056759;28;20035;-70
2022/06/23 00:17:24;;;;;;;13.82;5.60;;;;;;;16.11;100.00;98089.44;5066271;28;20013;-70
2022/06/23 00:19:49;;;;;;;14.23;5.97;;;;;;;16.10;100.00;98094.88;5065990;28;20024;-70
2022/06/23 00:22:18;;;;;;;19.15;6.18;;;;;;;16.10;100.00;98094.88;5064649;28;20025;-70
2022/06/23 00:24:48;;;;;;;23.15;5.88;;;;;;;16.03;100.00;98091.66;5047878;28;20041;-70
2022/06/23 00:27:16;;;;;;;15.57;5.47;;;;;;;15.90;100.00;98094.97;5046811;28;20248;-70
2022/06/23 00:29:44;;;;;;;11.50;5.53;;;;;;;16.07;100.00;98103.81;5054077;28;20029;-70
2022/06/23 00:32:10;;;;;;;13.32;5.57;;;;;;;15.90;100.00;98106.47;5049165;28;20033;-70
2022/06/23 00:34:42;;;;;;;18.50;5.97;;;;;;;15.85;100.00;98103.16;5065977;28;20347;-70
2022/06/23 00:37:11;;;;;;;13.40;4.90;;;;;;;15.90;100.00;98106.47;5064426;28;20020;-70
2022/06/23 00:39:42;;;;;;;8.57;5.72;;;;;;;15.84;100.00;98101.44;5046504;28;20104;-70
2022/06/23 00:42:21;;;;;;;7.78;5.00;;;;;;;15.77;100.00;98109.78;5053527;28;20044;-70
2022/06/23 00:44:55;;;;;;;14.45;5.30;;;;;;;15.72;100.00;98107.34;5062167;28;20030;-70
2022/06/23 00:47:31;;;;;;;8.98;5.07;;;;;;;15.72;100.00;98107.34;5046263;28;20022;-70
2022/06/23 00:50:18;;;;;;;16.08;5.80;;;;;;;15.63;100.00;98102.47;5059714;28;20025;-70
2022/06/23 00:52:55;;;;;;;10.93;5.40;;;;;;;15.55;100.00;98098.47;5055113;28;20408;-70
2022/06/23 00:55:49;;;;;;;10.65;4.88;;;;;;;15.49;100.00;98094.31;5046163;28;20040;-70
2022/06/23 00:58:24;;;;;;;14.55;4.47;;;;;;;15.49;100.00;98088.13;5046102;28;20025;-70
2022/06/23 01:00:53;;;;;;;16.00;5.80;;;;;;;15.46;100.00;98088.28;5047648;28;20025;-70
2022/06/23 01:03:36;;;;;;;15.60;5.50;;;;;;;15.46;100.00;98088.28;5065445;28;20260;-70
2022/06/23 01:06:18;;;;;;;13.90;5.90;;;;;;;15.40;100.00;98089.44;5065415;28;20026;-70
2022/06/23 01:08:58;;;;;;;6.85;4.07;;;;;;;15.41;100.00;98096.44;5065153;28;20328;-70
2022/06/23 01:11:52;;;;;;;12.43;5.20;;;;;;;15.26;100.00;98091.84;5059098;28;20204;-70
2022/06/23 01:14:34;;;;;;;20.92;6.20;;;;;;;15.25;100.00;98090.13;5037669;28;20048;-70
2022/06/23 01:17:21;;;;;;;18.00;4.60;;;;;;;15.21;100.00;98093.84;5054138;28;20024;-70
2022/06/23 01:19:58;;;;;;;10.27;5.18;;;;;;;15.18;100.00;98094.00;5045729;28;20332;-70
2022/06/23 01:22:59;;;;;;;17.92;5.07;;;;;;;15.13;100.00;98096.00;5062849;28;20048;-70
2022/06/23 01:25:54;;;;;;;9.35;4.22;;;;;;;15.13;100.00;98096.00;5045134;28;20049;-70
2022/06/23 01:28:23;;;;;;;8.60;5.03;;;;;;;15.13;100.00;98101.31;5040982;28;20083;-70
2022/06/23 01:31:27;;;;;;;8.10;4.18;;;;;;;15.10;100.00;98101.44;5050206;28;20028;-70
2022/06/23 01:34:02;;;;;;;14.48;4.35;;;;;;;14.90;100.00;98109.41;5049880;28;20324;-70
2022/06/23 01:36:36;;;;;;;28.45;5.78;;;;;;;14.96;100.00;98114.44;5063177;28;20017;-70
2022/06/23 01:39:18;;;;;;;13.05;5.32;;;;;;;14.96;100.00;98119.75;5063885;28;20025;-70
2022/06/23 01:41:53;;;;;;;14.88;6.07;;;;;;;14.99;100.00;98130.22;5047666;28;20025;-70
2022/06/23 01:44:38;;;;;;;15.48;5.70;;;;;;;15.01;100.00;98128.38;5052131;28;20032;-70
2022/06/23 01:47:27;;;;;;;31.45;6.60;;;;;;;14.99;100.00;98130.22;5045154;28;20052;-70
2022/06/23 01:49:59;;;;;;;14.48;6.50;;;;;;;14.94;100.00;98124.28;5047814;28;20033;-70
2022/06/23 01:52:24;;;;;;;31.58;6.13;;;;;;;14.95;100.00;98128.63;5045097;28;20076;-70
2022/06/23 01:55:00;;;;;;;28.73;5.90;;;;;;;14.95;100.00;98133.94;5064579;28;20024;-70
2022/06/23 01:57:38;;;;;;;19.63;4.78;;;;;;;14.95;100.00;98128.63;5064428;28;20025;-70
2022/06/23 02:00:13;;;;;;;18.02;4.18;;;;;;;14.92;100.00;98137.59;5045217;28;20100;-70
2022/06/23 02:02:52;;;;;;;14.00;5.35;;;;;;;14.79;100.00;98127.59;5046655;28;20021;-70
2022/06/23 02:05:40;;;;;;;17.20;4.45;;;;;;;14.75;100.00;98128.66;5049406;28;20036;-70
2022/06/23 02:08:30;;;;;;;34.30;5.53;;;;;;;14.71;100.00;98127.06;5057718;28;20283;-70
2022/06/23 02:11:32;;;;;;;12.85;4.65;;;;;;;14.70;100.00;98125.34;5063602;28;20336;-70
2022/06/23 02:14:13;;;;;;;9.05;4.53;;;;;;;14.73;100.00;98127.84;5051845;28;20351;-70
2022/06/23 02:16:57;;;;;;;13.57;5.38;;;;;;;14.59;100.00;98124.97;5044718;28;20017;-70
2022/06/23 02:19:52;;;;;;;10.02;4.63;;;;;;;14.54;100.00;98126.94;5052522;28;20021;-70
2022/06/23 02:22:24;;;;;;;7.30;4.25;;;;;;;14.50;100.00;98125.34;5058695;28;20021;-70
2022/06/23 02:25:05;;;;;;;7.72;4.25;;;;;;;14.48;100.00;98121.91;5044839;28;20041;-70
2022/06/23 02:27:53;;;;;;;13.82;5.40;;;;;;;14.49;100.00;98124.47;5044572;28;20252;-70
2022/06/23 02:30:27;;;;;;;11.07;4.40;;;;;;;14.47;100.00;98130.78;5044637;28;20043;-70
2022/06/23 02:33:04;;;;;;;8.48;4.40;;;;;;;14.49;100.00;98134.25;5056464;28;20036;-70
2022/06/23 02:35:49;;;;;;;8.80;4.88;;;;;;;14.53;100.00;98136.66;5054242;28;20063;-70
2022/06/23 02:38:36;;;;;;;8.77;5.15;;;;;;;14.50;100.00;98133.28;5062386;28;20025;-70
2022/06/23 02:41:01;;;;;;;13.27;5.20;;;;;;;14.60;100.00;98134.63;5054497;28;20332;-70
2022/06/23 02:43:58;;;;;;;10.35;4.70;;;;;;;14.66;100.00;98132.59;5063331;28;20024;-70
2022/06/23 02:46:32;;;;;;;13.38;5.80;;;;;;;14.79;100.00;98131.13;5043352;28;20033;-70
2022/06/23 02:49:05;;;;;;;15.43;5.68;;;;;;;14.92;100.00;98129.63;5049776;28;20096;-70
2022/06/23 02:51:39;;;;;;;12.15;6.03;;;;;;;15.05;100.00;98129.94;5061729;28;20049;-70
2022/06/23 02:54:20;;;;;;;12.85;6.57;;;;;;;15.16;100.00;98122.38;5063586;28;20300;-70
2022/06/23 02:56:58;;;;;;;14.38;6.13;;;;;;;14.95;100.00;98125.97;5063182;28;20092;-70
2022/06/23 02:59:32;;;;;;;13.13;6.55;;;;;;;14.95;100.00;98133.94;5063655;28;20049;-70
2022/06/23 03:02:03;;;;;;;14.30;5.80;;;;;;;14.98;100.00;98133.81;5052775;28;20025;-70
2022/06/23 03:04:34;;;;;;;12.80;5.90;;;;;;;14.99;100.00;98138.16;5044019;28;20096;-70
2022/06/23 03:07:08;;;;;;;11.63;5.80;;;;;;;15.08;100.00;98135.09;5043875;28;20087;-70
2022/06/23 03:09:42;;;;;;;8.77;5.43;;;;;;;15.13;100.00;98133.13;5043980;28;20213;-70
2022/06/23 03:12:16;;;;;;;9.63;5.90;;;;;;;15.19;100.00;98139.00;5045059;28;20036;-70
2022/06/23 03:14:42;;;;;;;12.25;5.72;;;;;;;15.20;100.00;98134.56;5043866;28;20025;-70
2022/06/23 03:17:35;;;;;;;8.85;5.43;;;;;;;15.26;100.00;98139.59;5044120;28;20268;-70
2022/06/23 03:20:13;;;;;;;15.35;4.95;;;;;;;15.33;100.00;98145.44;5059571;28;20179;-70
2022/06/23 03:22:47;;;;;;;15.48;5.78;;;;;;;15.32;100.00;98144.59;5044609;28;20028;-70
2022/06/23 03:25:42;;;;;;;12.52;4.85;;;;;;;15.43;100.00;98152.06;5047866;28;20052;-70
2022/06/23 03:28:18;;;;;;;12.10;5.80;;;;;;;15.37;100.00;98142.63;5050999;28;20045;-70
2022/06/23 03:30:59;;;;;;;11.80;6.00;;;;;;;15.38;100.00;98144.38;5048881;28;20017;-70
2022/06/23 03:33:35;;;;;;;14.55;6.03;;;;;;;15.41;100.00;98157.44;5048786;28;20021;-70
2022/06/23 03:36:16;;;;;;;15.65;5.97;;;;;;;15.40;100.00;98161.03;5047683;28;20029;-70
2022/06/23 03:42:17;;;;;;;15.10;6.30;;;;;;;15.49;100.00;98157.97;5058368;28;20028;-70
2022/06/23 03:44:51;;;;;;;14.40;6.43;;;;;;;15.54;100.00;98165.72;5066951;28;20028;-70
2022/06/23 03:47:44;;;;;;;10.60;5.90;;;;;;;15.56;100.00;98164.72;5067072;28;20024;-70
2022/06/23 03:50:25;;;;;;;11.68;5.70;;;;;;;15.56;100.00;98159.41;5062714;28;20030;-70
2022/06/23 03:53:18;;;;;;;18.17;5.90;;;;;;;15.62;100.00;98167.06;5047415;28;20232;-70
2022/06/23 03:55:57;;;;;;;22.98;7.15;;;;;;;15.70;100.00;98161.41;5047327;28;20033;-70
2022/06/23 03:58:33;;;;;;;22.60;7.57;;;;;;;15.78;100.00;98162.78;5047278;28;20312;-70
2022/06/23 04:01:04;;;;;;;23.63;8.65;;;;;;;15.88;100.00;98161.41;5049484;28;20368;-70
2022/06/23 04:03:47;;;;;;;17.83;7.45;;;;;;;16.02;100.00;98169.56;5047232;28;20025;-70
2022/06/23 04:06:22;;;;;;;15.20;6.57;;;;;;;16.03;100.00;98160.66;5047124;28;20028;-70
2022/06/23 04:09:01;;;;;;;17.00;6.25;;;;;;;15.98;100.00;98160.00;5048237;28;20321;-70
2022/06/23 04:11:46;;;;;;;18.17;7.25;;;;;;;16.03;100.00;98150.03;5048178;28;20021;-70
2022/06/23 04:14:28;;;;;;;19.67;6.80;;;;;;;16.05;100.00;98148.19;5059117;28;20091;-70
2022/06/23 04:17:11;;;;;;;34.28;8.35;;;;;;;16.13;100.00;98150.44;5066059;28;20029;-69
2022/06/23 04:19:36;;;;;;;;;;;;;;;16.19;100.00;98145.69;5059706;28;20028;-69
2022/06/23 04:22:13;;;;;;;15.40;6.47;;;;;;;16.27;100.00;98145.34;5048380;28;19908;-69
2022/06/23 04:24:43;;;;;;;27.73;8.65;;;;;;;16.31;100.00;98155.72;5051552;28;20333;-68
2022/06/23 04:27:22;;;;;;;27.45;8.32;;;;;;;16.36;100.00;98164.31;5056160;28;20025;-68
2022/06/23 04:29:52;;;;;;;20.40;7.68;;;;;;;16.39;100.00;98148.22;5059436;28;20025;-68
2022/06/23 04:32:23;;;;;;;18.30;6.90;;;;;;;16.45;100.00;98152.41;5051831;28;20029;-68
2022/06/23 04:35:10;;;;;;;22.77;7.75;;;;;;;16.65;100.00;98154.91;5047235;28;20220;-68
2022/06/23 04:38:15;;;;;;;20.35;7.20;;;;;;;16.83;100.00;98154.81;5047028;28;20044;-68
2022/06/23 04:40:43;;;;;;;23.63;7.68;;;;;;;17.04;100.00;98153.72;5046721;28;20221;-68
2022/06/23 04:43:17;;;;;;;32.55;11.35;;;;;;;17.22;100.00;98152.72;5046421;28;20081;-68
2022/06/23 04:45:48;;;;;;;28.58;8.40;;;;;;;17.44;100.00;98156.94;5046313;28;20053;-68
2022/06/23 04:48:21;;;;;;;34.13;9.65;;;;;;;17.62;100.00;98162.09;5046323;28;20025;-68
2022/06/23 04:50:56;;;;;;;33.55;8.13;;;;;;;17.70;100.00;98159.91;5046266;28;20025;-68
2022/06/23 04:54:14;;;;;;;30.48;9.45;;;;;;;17.70;100.00;98170.53;5046205;28;20025;-68
2022/06/23 04:56:42;;;;;;;25.90;8.90;;;;;;;17.82;100.00;98166.34;5034392;28;20057;-68
2022/06/23 04:59:39;;;;;;;33.95;10.93;;;;;;;18.00;100.00;98173.31;5046131;28;20291;-68
2022/06/23 05:02:19;;;;;;;31.35;10.02;;;;;;;18.32;100.00;98177.66;5046042;28;20028;-68
2022/06/23 05:05:13;;;;;;;34.05;10.82;;;;;;;18.50;100.00;98185.47;5046255;28;20052;-68
2022/06/23 05:07:52;;;;;;;35.75;12.32;;;;;;;18.66;100.00;98185.44;5045945;28;20217;-68
2022/06/23 05:10:25;;;;;;;22.40;9.38;;;;;;;18.93;100.00;98197.16;5045890;28;20390;-68
2022/06/23 05:12:58;;;;;;;28.30;9.25;;;;;;;19.75;97.02;98199.19;5045840;28;20025;-69
2022/06/23 05:15:38;;;;;;;28.02;10.02;;;;;;;21.13;89.99;98187.28;5045801;28;20411;-69
2022/06/23 05:18:29;;;;;;;25.58;11.57;;;;;;;21.78;86.52;98192.56;5045975;28;20089;-69
2022/06/23 05:21:04;;;;;;;19.55;9.57;;;;;;;23.16;81.06;98185.69;5045705;28;20021;-69
2022/06/23 05:23:51;;;;;;;16.25;8.30;;;;;;;24.03;78.46;98195.88;5045503;28;20079;-69
2022/06/23 05:26:38;;;;;;;23.25;9.80;;;;;;;24.72;75.02;98185.63;5045493;28;20026;-69
2022/06/23 05:29:15;;;;;;;25.25;10.10;;;;;;;25.34;73.21;98195.66;5045474;28;20029;-69
2022/06/23 05:31:41;;;;;;;18.20;9.07;;;;;;;25.96;70.03;98191.00;5045525;28;20028;-69
2022/06/23 05:34:28;;;;;;;14.02;8.95;;;;;;;26.16;67.99;98185.59;5045382;28;20025;-69
2022/06/23 05:37:17;;;;;;;16.45;8.35;;;;;;;26.91;67.50;98188.63;5045287;28;20025;-69
2022/06/23 05:39:46;;;;;;;13.45;7.82;;;;;;;27.47;64.46;98186.06;5045389;28;20092;-69
2022/06/23 05:42:21;;;;;;;16.58;8.80;;;;;;;27.39;65.02;98189.47;5045294;28;20025;-69
2022/06/23 05:44:54;;;;;;;14.90;8.45;;;;;;;27.42;62.73;98188.34;5045149;28;20032;-69
2022/06/23 05:47:20;;;;;;;12.25;7.72;;;;;;;27.49;64.85;98190.31;5044774;28;20026;-69
2022/06/23 05:49:52;;;;;;;16.27;8.15;;;;;;;27.77;63.52;98197.50;5045430;28;20256;-69
2022/06/23 05:52:47;;;;;;;18.58;8.75;;;;;;;27.83;62.17;98199.63;5045106;28;20088;-69
2022/06/23 05:55:24;;;;;;;13.77;7.70;;;;;;;27.14;64.68;98187.31;5045043;28;20131;-69
2022/06/23 05:57:59;;;;;;;13.50;8.35;;;;;;;27.57;64.10;98192.28;5044944;28;20060;-69
2022/06/23 06:00:38;;;;;;;12.52;7.55;;;;;;;27.94;61.41;98190.50;5044982;28;20021;-69
2022/06/23 06:03:11;;;;;;;14.35;7.40;;;;;;;27.45;62.85;98194.31;5044878;28;20056;-69
2022/06/23 06:05:41;;;;;;;14.52;7.65;;;;;;;28.21;61.71;98196.81;5044814;28;20221;-69
2022/06/23 06:08:30;;;;;;;15.30;7.60;;;;;;;28.70;60.63;98190.97;5044794;28;20025;-69
2022/06/23 06:10:58;;;;;;;13.48;7.70;;;;;;;28.40;59.44;98187.72;5045017;28;20247;-69
2022/06/23 06:13:28;;;;;;;15.35;7.32;;;;;;;29.10;58.91;98198.69;5044656;28;20052;-69
2022/06/23 06:15:57;;;;;;;14.20;7.27;;;;;;;28.99;58.95;98197.06;5044671;28;20087;-69
2022/06/23 06:18:38;;;;;;;12.57;6.28;;;;;;;28.72;58.28;98183.56;5044879;28;20427;-69
2022/06/23 06:21:08;;;;;;;10.38;6.50;;;;;;;28.19;60.16;98187.97;5044573;28;20029;-69
2022/06/23 06:23:45;;;;;;;13.07;6.30;;;;;;;28.70;60.48;98182.03;5044384;28;20044;-69
2022/06/23 06:26:14;;;;;;;11.93;6.35;;;;;;;28.56;58.66;98177.97;5044433;28;20040;-69
2022/06/23 06:28:39;;;;;;;14.52;7.30;;;;;;;28.85;57.93;98178.63;5044326;28;20198;-69
2022/06/23 06:31:38;;;;;;;12.43;5.95;;;;;;;28.91;58.66;98188.84;5044469;28;20028;-69
2022/06/23 06:34:30;;;;;;;15.25;6.22;;;;;;;29.11;58.32;98179.56;5044404;28;20263;-69
2022/06/23 06:36:55;;;;;;;;;;;;;;;28.98;58.40;98179.09;5044744;28;20025;-69
2022/06/23 06:39:29;;;;;;;9.20;5.47;;;;;;;29.88;56.55;98178.81;5044285;28;19905;-69
2022/06/23 06:42:09;;;;;;;11.82;4.60;;;;;;;30.64;54.86;98180.56;5044231;28;20562;-69
2022/06/23 06:44:46;;;;;;;11.32;3.92;;;;;;;30.59;53.40;98172.06;5044237;28;20021;-69
2022/06/23 06:47:33;;;;;;;14.55;5.43;;;;;;;30.54;52.89;98177.13;5044101;28;20108;-69
2022/06/23 06:50:18;;;;;;;13.32;4.13;;;;;;;30.98;52.87;98179.47;5044140;28;20029;-69
2022/06/23 06:52:43;;;;;;;11.15;3.72;;;;;;;31.96;50.73;98190.22;5044120;28;20091;-69
2022/06/23 06:55:17;;;;;;;9.10;3.95;;;;;;;32.23;50.71;98187.06;5044095;28;20321;-69
2022/06/23 06:57:48;;;;;;;8.20;2.97;;;;;;;32.16;49.45;98183.34;5043145;28;20036;-69
2022/06/23 07:00:24;;;;;;;8.80;2.95;;;;;;;32.79;49.21;98185.97;5044071;28;20025;-69
2022/06/23 07:02:56;;;;;;;11.27;3.22;;;;;;;31.87;49.78;98188.53;5043970;28;20248;-69
2022/06/23 07:05:49;;;;;;;11.32;3.35;;;;;;;31.84;50.06;98186.16;5043938;28;20044;-69
2022/06/23 07:08:27;;;;;;;7.85;2.72;;;;;;;31.09;50.96;98181.00;5043903;28;20416;-69
2022/06/23 07:11:09;;;;;;;8.57;2.67;;;;;;;32.33;50.22;98187.72;5043869;28;20031;-69
2022/06/23 07:13:59;;;;;;;9.50;2.38;;;;;;;33.09;46.74;98185.97;5043947;28;20055;-69
2022/06/23 07:16:46;;;;;;;12.32;2.45;;;;;;;33.06;46.19;98186.34;5043862;28;20340;-69
2022/06/23 07:19:44;;;;;;;7.75;2.10;;;;;;;32.76;46.42;98172.69;5043881;28;20090;-69
2022/06/23 07:22:17;;;;;;;11.70;2.15;;;;;;;33.51;45.56;98168.28;5043169;28;20095;-69
2022/06/23 07:24:52;;;;;;;7.57;2.35;;;;;;;33.74;44.59;98169.09;5043704;28;20052;-69
2022/06/23 07:27:40;;;;;;;10.13;2.92;;;;;;;33.68;44.79;98158.91;5043609;28;20026;-69
2022/06/23 07:30:16;;;;;;;14.23;2.20;;;;;;;34.22;44.60;98154.91;5043941;28;20025;-69
2022/06/23 07:32:54;;;;;;;5.60;2.17;;;;;;;33.67;43.71;98157.22;5043746;28;20060;-69
2022/06/23 07:35:19;;;;;;;8.73;2.17;;;;;;;34.17;42.20;98149.19;5043731;28;20029;-69
2022/06/23 07:38:04;;;;;;;9.77;2.70;;;;;;;34.53;43.92;98147.38;5043922;28;20055;-69
2022/06/23 07:40:40;;;;;;;7.00;1.83;;;;;;;35.00;41.90;98153.22;5043631;28;20052;-69
2022/06/23 07:43:17;;;;;;;6.22;2.42;;;;;;;35.04;41.76;98143.59;5043609;28;20140;-69
2022/06/23 07:45:48;;;;;;;21.50;5.68;;;;;;;35.29;41.47;98147.63;5043575;28;20324;-70
2022/06/23 07:48:14;;;;;;;11.77;2.70;;;;;;;34.20;41.76;98138.72;5043549;28;20332;-70
2022/06/23 07:50:39;;;;;;;12.60;2.70;;;;;;;34.57;42.08;98141.34;5043564;28;20028;-70
2022/06/23 07:53:09;;;;;;;11.55;3.42;;;;;;;34.65;41.43;98154.06;5043568;28;20380;-70
2022/06/23 07:55:45;;;;;;;7.53;2.17;;;;;;;35.37;40.43;98154.88;5043565;28;20324;-70
2022/06/23 07:58:14;;;;;;;5.18;2.22;;;;;;;35.55;40.65;98153.34;5043549;28;20359;-70
2022/06/23 08:00:42;;;;;;;12.00;2.40;;;;;;;35.27;39.83;98144.22;5043387;28;20051;-70
2022/06/23 08:03:27;;;;;;;14.63;2.63;;;;;;;35.47;40.77;98149.94;5043460;28;20036;-70
2022/06/23 08:05:58;;;;;;;12.90;2.25;;;;;;;35.11;40.51;98143.66;5043326;28;20032;-70
2022/06/23 08:08:28;;;;;;;8.57;2.25;;;;;;;35.21;40.98;98144.19;5043621;28;20025;-70
2022/06/23 08:13:43;;;;;;;9.93;2.45;;;;;;;35.68;40.80;98147.97;5047017;28;20399;-70
2022/06/23 08:19:10;;;;;;;10.95;2.20;;;;;;;35.47;40.78;98128.03;5046893;28;20071;-70
2022/06/23 08:21:44;;;;;;;9.60;2.80;;;;;;;35.23;40.53;98126.50;5047108;28;20075;-70
2022/06/23 08:24:11;;;;;;;7.78;2.40;;;;;;;35.02;41.51;98123.81;5046694;28;20113;-70
2022/06/23 08:26:39;;;;;;;14.10;3.25;;;;;;;35.50;40.02;98117.53;5047050;28;20047;-70
2022/06/23 08:29:10;;;;;;;12.32;3.58;;;;;;;35.32;39.80;98124.47;5046796;28;20264;-70
2022/06/23 08:31:37;;;;;;;5.65;2.22;;;;;;;34.66;40.46;98112.00;5046683;28;20029;-70
2022/06/23 08:34:02;;;;;;;5.80;1.73;;;;;;;34.27;42.48;98116.97;5046614;28;20025;-70
2022/06/23 08:36:41;;;;;;;21.20;3.25;;;;;;;35.23;40.41;98112.84;5046498;28;20033;-70
2022/06/23 08:39:14;;;;;;;8.35;2.20;;;;;;;35.16;40.23;98109.19;5046791;28;20059;-70
2022/06/23 08:41:49;;;;;;;9.27;2.05;;;;;;;35.25;40.23;98115.38;5046480;28;20047;-70
2022/06/23 08:44:46;;;;;;;15.65;2.45;;;;;;;34.96;39.99;98108.16;5046458;28;20216;-70
2022/06/23 08:47:20;;;;;;;10.88;2.50;;;;;;;34.02;42.52;98112.84;5046457;28;20024;-70
2022/06/23 08:49:55;;;;;;;10.82;2.83;;;;;;;33.34;43.53;98112.13;5046322;28;20032;-70
2022/06/23 08:52:39;;;;;;;9.27;2.78;;;;;;;33.55;43.86;98109.56;5046289;28;20025;-70
2022/06/23 08:55:15;;;;;;;9.90;2.95;;;;;;;34.20;42.01;98110.56;5046245;28;20093;-70
2022/06/23 08:57:53;;;;;;;8.32;2.80;;;;;;;33.92;41.97;98110.41;5046190;28;20373;-70
2022/06/23 09:00:31;;;;;;;13.50;3.05;;;;;;;34.46;42.06;98116.41;5046125;28;20032;-70
2022/06/23 09:03:06;;;;;;;11.95;2.97;;;;;;;33.80;41.45;98108.28;5046111;28;20021;-70
2022/06/23 09:05:53;;;;;;;14.55;2.85;;;;;;;33.62;41.53;98113.25;5046034;28;20124;-70
2022/06/23 09:08:47;;;;;;;10.55;2.63;;;;;;;33.41;42.38;98102.22;5046005;28;20029;-70
2022/06/23 09:11:21;;;;;;;11.88;2.88;;;;;;;33.29;42.68;98103.66;5045927;28;20028;-70
2022/06/23 09:14:24;;;;;;;11.57;2.78;;;;;;;32.58;43.54;98098.53;5045889;28;20045;-70
2022/06/23 09:17:20;;;;;;;11.63;3.38;;;;;;;34.54;42.23;98103.44;5045745;28;20074;-70
2022/06/23 09:20:13;;;;;;;16.42;2.67;;;;;;;35.23;39.44;98107.34;5045364;28;20028;-70
2022/06/23 09:23:09;;;;;;;11.98;2.58;;;;;;;34.36;41.52;98094.81;5045773;28;20025;-70
2022/06/23 09:25:49;;;;;;;8.63;3.35;;;;;;;33.02;43.28;98091.44;5045671;28;20280;-70
2022/06/23 09:28:23;;;;;;;12.98;3.38;;;;;;;32.80;44.68;98093.09;5045528;28;20063;-70
2022/06/23 09:30:49;;;;;;;14.18;2.70;;;;;;;32.32;44.95;98077.03;5045592;28;20021;-70
2022/06/23 09:33:32;;;;;;;13.02;2.58;;;;;;;32.46;45.22;98079.03;5045518;28;20048;-70
2022/06/23 09:36:22;;;;;;;12.35;3.22;;;;;;;33.18;44.38;98087.72;5045639;28;20028;-70
2022/06/23 09:38:48;;;;;;;14.00;2.65;;;;;;;33.49;43.59;98091.19;5045425;28;20029;-70
2022/06/23 09:41:43;;;;;;;15.50;4.53;;;;;;;32.10;43.95;98066.94;5045302;28;20372;-70
2022/06/23 09:44:49;;;;;;;10.82;3.17;;;;;;;34.11;43.57;98073.44;5045395;28;20096;-70
2022/06/23 09:47:56;;;;;;;10.02;3.00;;;;;;;33.88;43.22;98067.25;5045257;28;20244;-70
2022/06/23 09:50:32;;;;;;;11.85;3.53;;;;;;;31.42;45.89;98060.34;5044756;28;20056;-70
2022/06/23 09:53:13;;;;;;;11.88;2.60;;;;;;;32.02;46.29;98058.81;5045127;28;20257;-70
2022/06/23 09:55:41;;;;;;;10.68;2.38;;;;;;;33.36;43.44;98060.94;5045168;28;20080;-70
2022/06/23 09:58:24;;;;;;;7.97;2.28;;;;;;;33.73;42.54;98063.66;5045075;28;20034;-70
2022/06/23 10:01:04;;;;;;;12.25;2.50;;;;;;;31.94;44.88;98047.97;5045000;28;20051;-70
2022/06/23 10:03:36;;;;;;;6.97;2.10;;;;;;;30.77;47.26;98047.78;5044923;28;20032;-70
2022/06/23 10:06:19;;;;;;;9.38;2.13;;;;;;;31.37;46.41;98051.84;5044905;28;20021;-70
2022/06/23 10:08:53;;;;;;;12.55;3.15;;;;;;;31.76;46.72;98051.94;5044852;28;20032;-70
2022/06/23 10:11:40;;;;;;;9.68;2.38;;;;;;;31.33;48.15;98038.78;5044733;28;20220;-70
2022/06/23 10:14:11;;;;;;;10.45;2.75;;;;;;;32.83;45.07;98051.84;5044861;28;20032;-70
2022/06/23 10:16:59;;;;;;;10.43;2.92;;;;;;;33.47;43.09;98044.16;5044673;28;20375;-70
2022/06/23 10:19:30;;;;;;;10.80;2.60;;;;;;;33.92;42.87;98042.13;5044528;28;20017;-70
2022/06/23 10:22:20;;;;;;;14.68;3.13;;;;;;;33.63;41.68;98047.53;5044606;28;20051;-70
2022/06/23 10:25:17;;;;;;;10.95;3.45;;;;;;;33.38;42.39;98048.00;5044459;28;20108;-70
2022/06/23 10:27:43;;;;;;;6.95;2.42;;;;;;;32.88;42.96;98052.19;5043755;28;20087;-70
2022/06/23 10:30:37;;;;;;;11.00;2.20;;;;;;;32.36;43.78;98039.44;5044552;28;20252;-70
2022/06/23 10:33:19;;;;;;;13.75;2.97;;;;;;;33.13;43.38;98044.63;5044197;28;20075;-70
2022/06/23 10:35:59;;;;;;;9.32;2.75;;;;;;;33.22;42.30;98043.53;5044335;28;20340;-70
2022/06/23 10:38:59;;;;;;;7.53;2.47;;;;;;;33.47;43.42;98030.50;5044307;28;20025;-70
2022/06/23 10:41:46;;;;;;;12.25;2.92;;;;;;;33.75;41.85;98037.03;5044290;28;20028;-70
2022/06/23 10:44:18;;;;;;;20.23;2.92;;;;;;;33.71;42.66;98035.69;5044217;28;20025;-70
2022/06/23 10:47:07;;;;;;;9.07;2.53;;;;;;;33.70;42.69;98021.19;5044227;28;20199;-70
2022/06/23 10:49:51;;;;;;;11.73;2.60;;;;;;;33.93;40.57;98023.84;5044406;28;20340;-70
2022/06/23 10:52:39;;;;;;;10.20;2.42;;;;;;;32.76;40.54;98010.00;5044152;28;20248;-70
2022/06/23 10:55:14;;;;;;;7.82;2.53;;;;;;;33.64;41.18;98015.63;5044055;28;20343;-70
2022/06/23 10:58:10;;;;;;;7.75;2.47;;;;;;;33.59;40.72;98010.75;5044034;28;20029;-70
2022/06/23 11:00:51;;;;;;;10.57;3.20;;;;;;;33.45;41.39;98002.56;5043983;28;20321;-70
2022/06/23 11:03:41;;;;;;;9.20;2.42;;;;;;;33.01;41.47;98014.25;5043986;28;20027;-70
2022/06/23 11:06:36;;;;;;;10.90;2.92;;;;;;;33.22;42.04;98009.94;5043992;28;20025;-70
2022/06/23 11:09:59;;;;;;;9.60;2.38;;;;;;;33.55;40.74;98000.38;5042257;28;20037;-70
2022/06/23 11:12:41;;;;;;;11.50;2.30;;;;;;;33.57;41.99;97987.41;5013680;28;20256;-70
2022/06/23 11:15:09;;;;;;;5.88;1.85;;;;;;;33.34;40.74;98003.81;5043953;28;20025;-70
2022/06/23 11:18:10;;;;;;;13.00;2.83;;;;;;;33.05;40.93;97999.19;5043791;28;20062;-70
2022/06/23 11:21:27;;;;;;;6.25;2.10;;;;;;;33.54;39.45;97993.25;5044095;28;20114;-70
2022/06/23 11:24:16;;;;;;;14.45;2.20;;;;;;;33.62;38.60;97980.34;5042987;28;20037;-70
2022/06/23 11:27:06;;;;;;;10.07;1.67;;;;;;;33.54;40.60;97983.19;5043938;28;20025;-70
2022/06/23 11:30:02;;;;;;;10.65;2.58;;;;;;;32.64;41.71;97975.16;5043744;28;20025;-70
2022/06/23 11:32:33;;;;;;;11.48;2.20;;;;;;;32.72;42.42;97977.84;5043968;28;20022;-70
2022/06/23 11:35:17;;;;;;;8.20;2.15;;;;;;;31.94;44.08;97971.72;5043724;28;20025;-70
2022/06/23 11:38:25;;;;;;;8.18;2.28;;;;;;;32.18;43.41;97960.69;5043572;28;20032;-70
2022/06/23 11:41:04;;;;;;;6.97;2.20;;;;;;;32.35;42.58;97962.31;5043685;28;20119;-70
2022/06/23 11:43:38;;;;;;;6.80;2.40;;;;;;;31.64;44.39;97949.91;5044062;28;20029;-70
2022/06/23 11:46:12;;;;;;;9.45;2.90;;;;;;;32.19;43.86;97948.75;5047509;28;20017;-70
2022/06/23 11:48:56;;;;;;;11.02;2.25;;;;;;;32.61;44.13;97946.41;5047537;28;20021;-70
2022/06/23 11:51:32;;;;;;;13.20;2.88;;;;;;;31.90;42.94;97943.19;5047402;28;20321;-70
2022/06/23 11:54:09;;;;;;;7.50;2.38;;;;;;;31.06;44.29;97939.38;5047389;28;20354;-70
2022/06/23 11:57:05;;;;;;;8.65;1.88;;;;;;;30.56;44.45;97933.34;5047239;28;20055;-70
2022/06/23 11:59:52;;;;;;;11.05;2.30;;;;;;;30.27;45.15;97935.69;5047294;28;20036;-70
2022/06/23 12:02:18;;;;;;;5.18;2.08;;;;;;;30.42;45.69;97937.56;5047227;28;20225;-70
2022/06/23 12:05:05;;;;;;;7.40;1.95;;;;;;;30.61;46.32;97922.78;5047445;28;20080;-70
2022/06/23 12:07:41;;;;;;;11.38;2.33;;;;;;;30.62;45.99;97929.91;5047114;28;20025;-70
2022/06/23 12:10:20;;;;;;;7.57;2.20;;;;;;;30.30;46.10;97929.94;5047094;28;20139;-70
2022/06/23 12:12:47;;;;;;;12.63;2.25;;;;;;;29.97;46.92;97928.19;5047062;28;20087;-70
2022/06/23 12:15:17;;;;;;;10.55;3.20;;;;;;;30.26;47.79;97925.84;5046942;28;20040;-70
2022/06/23 12:18:24;;;;;;;4.65;2.05;;;;;;;30.18;45.74;97913.13;5047108;28;20029;-70
2022/06/23 12:21:14;;;;;;;6.30;2.55;;;;;;;29.69;46.84;97903.19;5045110;28;20312;-70
2022/06/23 12:24:06;;;;;;;10.35;2.42;;;;;;;29.68;46.84;97912.34;5044988;28;20053;-70
2022/06/23 12:26:39;;;;;;;8.05;2.65;;;;;;;29.57;47.31;97903.63;5046639;28;20041;-70
2022/06/23 12:29:17;;;;;;;10.15;2.47;;;;;;;29.64;47.47;97904.72;5046701;28;20090;-70
2022/06/23 12:31:52;;;;;;;13.00;2.30;;;;;;;29.97;48.86;97907.31;5046889;28;20025;-70